sensor_id;sensor_type;location;lat;lon;timestamp;temperature;humidity
21559;DHT22;10940;48.890;8.240;2023-05-21T00:00:11;15.40;99.90
21559;DHT22;10940;48.890;8.240;2023-05-21T00:02:38;15.40;99.90
21559;DHT22;10940;48.890;8.240;2023-05-21T00:05:04;15.20;99.90
21559;DHT22;10940;48.890;8.240;2023-05-21T00:07:30;15.30;99.90
21559;DHT22;10940;48.890;8.240;2023-05-21T00:09:57;15.30;99.90
21559;DHT22;10940;48.890;8.240;2023-05-21T00:12:23;15.20;99.90
21559;DHT22;10940;48.890;8.240;2023-05-21T00:14:48;15.10;99.90
21559;DHT22;10940;48.890;8.240;2023-05-21T00:17:14;15.20;99.90
21559;DHT22;10940;48.890;8.240;2023-05-21T00:19:40;15.20;99.90
21559;DHT22;10940;48.890;8.240;2023-05-21T00:22:05;15.10;99.90
21559;DHT22;10940;48.890;8.240;2023-05-21T00:24:31;15.10;99.90
21559;DHT22;10940;48.890;8.240;2023-05-21T00:26:57;15.00;99.90
21559;DHT22;10940;48.890;8.240;2023-05-21T00:29:22;15.10;99.90
21559;DHT22;10940;48.890;8.240;2023-05-21T00:31:48;15.20;99.90
21559;DHT22;10940;48.890;8.240;2023-05-21T00:34:15;15.10;99.90
21559;DHT22;10940;48.890;8.240;2023-05-21T00:36:41;15.10;99.90
21559;DHT22;10940;48.890;8.240;2023-05-21T00:39:10;15.10;99.90
21559;DHT22;10940;48.890;8.240;2023-05-21T00:41:36;15.00;99.90
21559;DHT22;10940;48.890;8.240;2023-05-21T00:44:02;15.10;99.90
21559;DHT22;10940;48.890;8.240;2023-05-21T00:46:28;15.10;99.90
21559;DHT22;10940;48.890;8.240;2023-05-21T00:48:54;15.00;99.90
21559;DHT22;10940;48.890;8.240;2023-05-21T00:51:22;14.90;99.90
21559;DHT22;10940;48.890;8.240;2023-05-21T00:53:51;14.90;99.90
21559;DHT22;10940;48.890;8.240;2023-05-21T00:56:19;14.90;99.90
21559;DHT22;10940;48.890;8.240;2023-05-21T00:58:46;14.90;99.90
21559;DHT22;10940;48.890;8.240;2023-05-21T01:01:12;14.90;99.90
21559;DHT22;10940;48.890;8.240;2023-05-21T01:03:38;14.80;99.90
21559;DHT22;10940;48.890;8.240;2023-05-21T01:06:05;14.90;99.90
21559;DHT22;10940;48.890;8.240;2023-05-21T01:08:32;14.90;99.90
21559;DHT22;10940;48.890;8.240;2023-05-21T01:11:00;14.90;99.90
21559;DHT22;10940;48.890;8.240;2023-05-21T01:13:26;14.80;99.90
21559;DHT22;10940;48.890;8.240;2023-05-21T01:15:52;14.90;99.90
21559;DHT22;10940;48.890;8.240;2023-05-21T01:18:19;14.80;99.90
21559;DHT22;10940;48.890;8.240;2023-05-21T01:20:45;14.80;99.90
21559;DHT22;10940;48.890;8.240;2023-05-21T01:23:18;14.70;99.90
21559;DHT22;10940;48.890;8.240;2023-05-21T01:25:44;14.80;99.90
21559;DHT22;10940;48.890;8.240;2023-05-21T01:28:10;14.80;99.90
21559;DHT22;10940;48.890;8.240;2023-05-21T01:30:38;14.70;99.90
21559;DHT22;10940;48.890;8.240;2023-05-21T01:33:11;14.70;99.90
21559;DHT22;10940;48.890;8.240;2023-05-21T01:35:46;14.70;99.90
21559;DHT22;10940;48.890;8.240;2023-05-21T01:41:01;14.70;99.90
21559;DHT22;10940;48.890;8.240;2023-05-21T01:43:37;14.60;99.90
21559;DHT22;10940;48.890;8.240;2023-05-21T01:46:04;14.60;99.90
21559;DHT22;10940;48.890;8.240;2023-05-21T01:48:30;14.60;99.90
21559;DHT22;10940;48.890;8.240;2023-05-21T01:50:59;14.60;99.90
21559;DHT22;10940;48.890;8.240;2023-05-21T01:53:26;14.60;99.90
21559;DHT22;10940;48.890;8.240;2023-05-21T01:55:52;14.60;99.90
21559;DHT22;10940;48.890;8.240;2023-05-21T01:58:19;14.50;99.90
21559;DHT22;10940;48.890;8.240;2023-05-21T02:00:45;14.50;99.90
21559;DHT22;10940;48.890;8.240;2023-05-21T02:03:12;14.50;99.90
21559;DHT22;10940;48.890;8.240;2023-05-21T02:05:38;14.50;99.90
21559;DHT22;10940;48.890;8.240;2023-05-21T02:08:04;14.50;99.90
21559;DHT22;10940;48.890;8.240;2023-05-21T02:10:32;14.40;99.90
21559;DHT22;10940;48.890;8.240;2023-05-21T02:12:58;14.40;99.90
21559;DHT22;10940;48.890;8.240;2023-05-21T02:15:24;14.40;99.90
21559;DHT22;10940;48.890;8.240;2023-05-21T02:17:50;14.40;99.90
21559;DHT22;10940;48.890;8.240;2023-05-21T02:20:16;14.30;99.90
21559;DHT22;10940;48.890;8.240;2023-05-21T02:22:46;14.30;99.90
21559;DHT22;10940;48.890;8.240;2023-05-21T02:25:13;14.30;99.90
21559;DHT22;10940;48.890;8.240;2023-05-21T02:27:40;14.20;99.90
21559;DHT22;10940;48.890;8.240;2023-05-21T02:30:11;14.30;99.90
21559;DHT22;10940;48.890;8.240;2023-05-21T02:32:37;14.30;99.90
21559;DHT22;10940;48.890;8.240;2023-05-21T02:35:07;14.30;99.90
21559;DHT22;10940;48.890;8.240;2023-05-21T02:37:34;14.20;99.90
21559;DHT22;10940;48.890;8.240;2023-05-21T02:40:01;14.20;99.90
21559;DHT22;10940;48.890;8.240;2023-05-21T02:42:28;14.20;99.90
21559;DHT22;10940;48.890;8.240;2023-05-21T02:44:54;14.20;99.90
21559;DHT22;10940;48.890;8.240;2023-05-21T02:47:20;14.10;99.90
21559;DHT22;10940;48.890;8.240;2023-05-21T02:49:49;14.10;99.90
21559;DHT22;10940;48.890;8.240;2023-05-21T02:52:15;14.10;99.90
21559;DHT22;10940;48.890;8.240;2023-05-21T02:54:45;14.10;99.90
21559;DHT22;10940;48.890;8.240;2023-05-21T02:57:11;14.00;99.90
21559;DHT22;10940;48.890;8.240;2023-05-21T02:59:36;14.00;99.90
21559;DHT22;10940;48.890;8.240;2023-05-21T03:02:02;14.00;99.90
21559;DHT22;10940;48.890;8.240;2023-05-21T03:04:28;13.90;99.90
21559;DHT22;10940;48.890;8.240;2023-05-21T03:06:54;13.90;99.90
21559;DHT22;10940;48.890;8.240;2023-05-21T03:09:23;13.90;99.90
21559;DHT22;10940;48.890;8.240;2023-05-21T03:11:49;13.80;99.90
21559;DHT22;10940;48.890;8.240;2023-05-21T03:14:15;13.90;99.90
21559;DHT22;10940;48.890;8.240;2023-05-21T03:16:41;13.90;99.90
21559;DHT22;10940;48.890;8.240;2023-05-21T03:19:08;13.80;99.90
21559;DHT22;10940;48.890;8.240;2023-05-21T03:21:34;13.80;99.90
21559;DHT22;10940;48.890;8.240;2023-05-21T03:24:01;13.80;99.90
21559;DHT22;10940;48.890;8.240;2023-05-21T03:26:27;13.80;99.90
21559;DHT22;10940;48.890;8.240;2023-05-21T03:28:54;13.80;99.90
21559;DHT22;10940;48.890;8.240;2023-05-21T03:31:20;13.80;99.90
21559;DHT22;10940;48.890;8.240;2023-05-21T03:33:46;13.70;99.90
21559;DHT22;10940;48.890;8.240;2023-05-21T03:36:11;13.70;99.90
21559;DHT22;10940;48.890;8.240;2023-05-21T03:38:37;13.70;99.90
21559;DHT22;10940;48.890;8.240;2023-05-21T03:41:02;13.70;99.90
21559;DHT22;10940;48.890;8.240;2023-05-21T03:43:28;13.70;99.90
21559;DHT22;10940;48.890;8.240;2023-05-21T03:45:54;13.70;99.90
21559;DHT22;10940;48.890;8.240;2023-05-21T03:48:20;13.60;99.90
21559;DHT22;10940;48.890;8.240;2023-05-21T03:50:46;13.60;99.90
21559;DHT22;10940;48.890;8.240;2023-05-21T03:53:11;13.60;99.90
21559;DHT22;10940;48.890;8.240;2023-05-21T03:55:38;13.50;99.90
21559;DHT22;10940;48.890;8.240;2023-05-21T03:58:03;13.50;99.90
21559;DHT22;10940;48.890;8.240;2023-05-21T04:00:29;13.60;99.90
21559;DHT22;10940;48.890;8.240;2023-05-21T04:02:57;13.50;99.90
21559;DHT22;10940;48.890;8.240;2023-05-21T04:05:22;13.60;99.90
21559;DHT22;10940;48.890;8.240;2023-05-21T04:07:48;13.50;99.90
21559;DHT22;10940;48.890;8.240;2023-05-21T04:10:14;13.50;99.90
21559;DHT22;10940;48.890;8.240;2023-05-21T04:12:40;13.50;99.90
21559;DHT22;10940;48.890;8.240;2023-05-21T04:15:06;13.50;99.90
21559;DHT22;10940;48.890;8.240;2023-05-21T04:17:32;13.50;99.90
21559;DHT22;10940;48.890;8.240;2023-05-21T04:19:58;13.60;99.90
21559;DHT22;10940;48.890;8.240;2023-05-21T04:22:24;13.50;99.90
21559;DHT22;10940;48.890;8.240;2023-05-21T04:24:51;13.60;99.90
21559;DHT22;10940;48.890;8.240;2023-05-21T04:27:19;13.60;99.90
21559;DHT22;10940;48.890;8.240;2023-05-21T04:29:48;13.60;99.90
21559;DHT22;10940;48.890;8.240;2023-05-21T04:32:14;13.60;99.90
21559;DHT22;10940;48.890;8.240;2023-05-21T04:34:45;13.60;99.90
21559;DHT22;10940;48.890;8.240;2023-05-21T04:37:10;13.60;99.90
21559;DHT22;10940;48.890;8.240;2023-05-21T04:39:36;13.70;99.90
21559;DHT22;10940;48.890;8.240;2023-05-21T04:42:02;13.70;99.90
21559;DHT22;10940;48.890;8.240;2023-05-21T04:44:28;13.70;99.90
21559;DHT22;10940;48.890;8.240;2023-05-21T04:46:54;13.80;99.90
21559;DHT22;10940;48.890;8.240;2023-05-21T04:49:21;13.80;99.90
21559;DHT22;10940;48.890;8.240;2023-05-21T04:51:47;13.90;99.90
21559;DHT22;10940;48.890;8.240;2023-05-21T04:54:14;13.90;99.90
21559;DHT22;10940;48.890;8.240;2023-05-21T04:56:39;14.00;99.90
21559;DHT22;10940;48.890;8.240;2023-05-21T04:59:05;14.00;99.90
21559;DHT22;10940;48.890;8.240;2023-05-21T05:01:31;14.10;99.90
21559;DHT22;10940;48.890;8.240;2023-05-21T05:03:57;14.10;99.90
21559;DHT22;10940;48.890;8.240;2023-05-21T05:06:22;14.10;99.90
21559;DHT22;10940;48.890;8.240;2023-05-21T05:08:50;14.20;99.90
21559;DHT22;10940;48.890;8.240;2023-05-21T05:11:16;14.30;99.90
21559;DHT22;10940;48.890;8.240;2023-05-21T05:13:41;14.40;99.90
21559;DHT22;10940;48.890;8.240;2023-05-21T05:16:07;14.50;99.90
21559;DHT22;10940;48.890;8.240;2023-05-21T05:18:33;14.50;99.90
21559;DHT22;10940;48.890;8.240;2023-05-21T05:20:59;14.60;99.90
21559;DHT22;10940;48.890;8.240;2023-05-21T05:23:25;14.70;99.90
21559;DHT22;10940;48.890;8.240;2023-05-21T05:25:51;14.80;99.90
21559;DHT22;10940;48.890;8.240;2023-05-21T05:28:16;14.90;99.90
21559;DHT22;10940;48.890;8.240;2023-05-21T05:30:42;14.90;99.90
21559;DHT22;10940;48.890;8.240;2023-05-21T05:33:08;15.00;99.90
21559;DHT22;10940;48.890;8.240;2023-05-21T05:35:33;15.10;99.90
21559;DHT22;10940;48.890;8.240;2023-05-21T05:37:59;15.10;99.90
21559;DHT22;10940;48.890;8.240;2023-05-21T05:40:24;15.20;99.90
21559;DHT22;10940;48.890;8.240;2023-05-21T05:42:50;15.20;99.90
21559;DHT22;10940;48.890;8.240;2023-05-21T05:45:17;15.30;99.90
21559;DHT22;10940;48.890;8.240;2023-05-21T05:47:43;15.40;99.90
21559;DHT22;10940;48.890;8.240;2023-05-21T05:50:09;15.40;99.90
21559;DHT22;10940;48.890;8.240;2023-05-21T05:52:35;15.40;99.90
21559;DHT22;10940;48.890;8.240;2023-05-21T05:55:01;15.50;99.90
21559;DHT22;10940;48.890;8.240;2023-05-21T05:57:26;15.50;99.90
21559;DHT22;10940;48.890;8.240;2023-05-21T05:59:52;15.60;99.90
21559;DHT22;10940;48.890;8.240;2023-05-21T06:02:18;15.60;99.90
21559;DHT22;10940;48.890;8.240;2023-05-21T06:04:43;15.60;99.90
21559;DHT22;10940;48.890;8.240;2023-05-21T06:07:09;15.60;99.90
21559;DHT22;10940;48.890;8.240;2023-05-21T06:09:35;15.70;99.90
21559;DHT22;10940;48.890;8.240;2023-05-21T06:12:00;15.70;99.90
21559;DHT22;10940;48.890;8.240;2023-05-21T06:14:26;15.90;99.90
21559;DHT22;10940;48.890;8.240;2023-05-21T06:16:52;15.90;99.90
21559;DHT22;10940;48.890;8.240;2023-05-21T06:19:17;15.90;99.90
21559;DHT22;10940;48.890;8.240;2023-05-21T06:21:43;15.90;99.90
21559;DHT22;10940;48.890;8.240;2023-05-21T06:24:08;15.90;99.90
21559;DHT22;10940;48.890;8.240;2023-05-21T06:26:34;15.90;99.90
21559;DHT22;10940;48.890;8.240;2023-05-21T06:29:00;16.00;99.90
21559;DHT22;10940;48.890;8.240;2023-05-21T06:31:25;15.90;99.90
21559;DHT22;10940;48.890;8.240;2023-05-21T06:33:51;16.00;99.90
21559;DHT22;10940;48.890;8.240;2023-05-21T06:36:18;16.10;99.90
21559;DHT22;10940;48.890;8.240;2023-05-21T06:38:43;16.10;99.90
21559;DHT22;10940;48.890;8.240;2023-05-21T06:41:09;16.10;99.90
21559;DHT22;10940;48.890;8.240;2023-05-21T06:43:35;16.10;99.90
21559;DHT22;10940;48.890;8.240;2023-05-21T06:46:00;16.20;99.90
21559;DHT22;10940;48.890;8.240;2023-05-21T06:48:26;16.30;99.90
21559;DHT22;10940;48.890;8.240;2023-05-21T06:50:52;16.30;99.90
21559;DHT22;10940;48.890;8.240;2023-05-21T06:53:17;16.40;99.90
21559;DHT22;10940;48.890;8.240;2023-05-21T06:55:43;16.40;99.90
21559;DHT22;10940;48.890;8.240;2023-05-21T06:58:13;16.40;99.90
21559;DHT22;10940;48.890;8.240;2023-05-21T07:00:38;16.50;99.90
21559;DHT22;10940;48.890;8.240;2023-05-21T07:03:04;16.50;99.90
21559;DHT22;10940;48.890;8.240;2023-05-21T07:05:30;16.50;99.90
21559;DHT22;10940;48.890;8.240;2023-05-21T07:07:55;16.60;99.90
21559;DHT22;10940;48.890;8.240;2023-05-21T07:10:21;16.70;99.90
21559;DHT22;10940;48.890;8.240;2023-05-21T07:12:46;16.80;99.90
21559;DHT22;10940;48.890;8.240;2023-05-21T07:15:12;16.80;99.90
21559;DHT22;10940;48.890;8.240;2023-05-21T07:17:38;16.90;99.90
21559;DHT22;10940;48.890;8.240;2023-05-21T07:20:04;16.90;99.90
21559;DHT22;10940;48.890;8.240;2023-05-21T07:22:36;17.00;99.90
21559;DHT22;10940;48.890;8.240;2023-05-21T07:25:02;17.00;99.90
21559;DHT22;10940;48.890;8.240;2023-05-21T07:27:28;17.10;99.90
21559;DHT22;10940;48.890;8.240;2023-05-21T07:29:53;17.10;99.90
21559;DHT22;10940;48.890;8.240;2023-05-21T07:32:19;17.20;99.90
21559;DHT22;10940;48.890;8.240;2023-05-21T07:34:45;17.30;99.90
21559;DHT22;10940;48.890;8.240;2023-05-21T07:37:11;17.40;99.90
21559;DHT22;10940;48.890;8.240;2023-05-21T07:39:38;17.50;99.90
21559;DHT22;10940;48.890;8.240;2023-05-21T07:42:04;17.60;99.90
21559;DHT22;10940;48.890;8.240;2023-05-21T07:44:29;17.70;99.90
21559;DHT22;10940;48.890;8.240;2023-05-21T07:46:56;17.80;99.90
21559;DHT22;10940;48.890;8.240;2023-05-21T07:49:22;18.00;99.90
21559;DHT22;10940;48.890;8.240;2023-05-21T07:51:48;18.00;99.90
21559;DHT22;10940;48.890;8.240;2023-05-21T07:54:13;18.20;99.90
21559;DHT22;10940;48.890;8.240;2023-05-21T07:56:39;18.30;99.90
21559;DHT22;10940;48.890;8.240;2023-05-21T07:59:04;18.40;99.90
21559;DHT22;10940;48.890;8.240;2023-05-21T08:01:30;18.50;99.90
21559;DHT22;10940;48.890;8.240;2023-05-21T08:03:58;18.70;99.90
21559;DHT22;10940;48.890;8.240;2023-05-21T08:06:26;19.00;99.90
21559;DHT22;10940;48.890;8.240;2023-05-21T08:08:51;19.10;99.90
21559;DHT22;10940;48.890;8.240;2023-05-21T08:11:18;19.30;99.90
21559;DHT22;10940;48.890;8.240;2023-05-21T08:13:44;19.50;99.90
21559;DHT22;10940;48.890;8.240;2023-05-21T08:16:09;19.70;99.90
21559;DHT22;10940;48.890;8.240;2023-05-21T08:18:35;19.90;99.90
21559;DHT22;10940;48.890;8.240;2023-05-21T08:21:01;20.00;99.90
21559;DHT22;10940;48.890;8.240;2023-05-21T08:23:26;20.20;99.90
21559;DHT22;10940;48.890;8.240;2023-05-21T08:25:52;20.40;99.90
21559;DHT22;10940;48.890;8.240;2023-05-21T08:28:18;20.50;99.90
21559;DHT22;10940;48.890;8.240;2023-05-21T08:30:43;20.60;99.90
21559;DHT22;10940;48.890;8.240;2023-05-21T08:33:09;20.70;99.90
21559;DHT22;10940;48.890;8.240;2023-05-21T08:35:34;20.90;99.90
21559;DHT22;10940;48.890;8.240;2023-05-21T08:38:00;20.90;99.90
21559;DHT22;10940;48.890;8.240;2023-05-21T08:40:26;21.00;99.90
21559;DHT22;10940;48.890;8.240;2023-05-21T08:42:51;21.10;99.90
21559;DHT22;10940;48.890;8.240;2023-05-21T08:45:21;21.10;99.90
21559;DHT22;10940;48.890;8.240;2023-05-21T08:47:48;21.10;99.90
21559;DHT22;10940;48.890;8.240;2023-05-21T08:50:16;21.10;99.90
21559;DHT22;10940;48.890;8.240;2023-05-21T08:52:45;21.10;99.90
21559;DHT22;10940;48.890;8.240;2023-05-21T08:55:10;21.10;99.90
21559;DHT22;10940;48.890;8.240;2023-05-21T08:57:37;21.10;99.90
21559;DHT22;10940;48.890;8.240;2023-05-21T09:00:05;21.00;99.90
21559;DHT22;10940;48.890;8.240;2023-05-21T09:02:33;21.10;99.90
21559;DHT22;10940;48.890;8.240;2023-05-21T09:04:59;21.10;99.90
21559;DHT22;10940;48.890;8.240;2023-05-21T09:07:28;21.10;99.90
21559;DHT22;10940;48.890;8.240;2023-05-21T09:10:03;21.10;99.90
21559;DHT22;10940;48.890;8.240;2023-05-21T09:12:30;21.20;99.90
21559;DHT22;10940;48.890;8.240;2023-05-21T09:14:56;21.10;99.90
21559;DHT22;10940;48.890;8.240;2023-05-21T09:17:23;21.20;99.90
21559;DHT22;10940;48.890;8.240;2023-05-21T09:20:11;21.10;99.90
21559;DHT22;10940;48.890;8.240;2023-05-21T09:25:13;21.10;99.90
21559;DHT22;10940;48.890;8.240;2023-05-21T09:27:39;21.10;99.90
21559;DHT22;10940;48.890;8.240;2023-05-21T09:30:09;21.20;99.90
21559;DHT22;10940;48.890;8.240;2023-05-21T09:32:35;21.30;99.90
21559;DHT22;10940;48.890;8.240;2023-05-21T09:35:11;21.30;99.90
21559;DHT22;10940;48.890;8.240;2023-05-21T09:37:44;21.40;99.90
21559;DHT22;10940;48.890;8.240;2023-05-21T09:42:38;21.50;99.90
21559;DHT22;10940;48.890;8.240;2023-05-21T09:45:06;21.70;99.90
21559;DHT22;10940;48.890;8.240;2023-05-21T09:47:32;21.70;99.90
21559;DHT22;10940;48.890;8.240;2023-05-21T09:49:58;21.80;99.90
21559;DHT22;10940;48.890;8.240;2023-05-21T09:52:24;22.00;99.90
21559;DHT22;10940;48.890;8.240;2023-05-21T09:54:51;22.20;99.90
21559;DHT22;10940;48.890;8.240;2023-05-21T09:57:25;22.40;99.90
21559;DHT22;10940;48.890;8.240;2023-05-21T09:59:51;22.50;99.90
21559;DHT22;10940;48.890;8.240;2023-05-21T10:02:19;22.60;99.90
21559;DHT22;10940;48.890;8.240;2023-05-21T10:04:50;22.60;99.90
21559;DHT22;10940;48.890;8.240;2023-05-21T10:07:19;22.70;99.90
21559;DHT22;10940;48.890;8.240;2023-05-21T10:09:55;22.70;99.90
21559;DHT22;10940;48.890;8.240;2023-05-21T10:12:22;22.80;99.90
21559;DHT22;10940;48.890;8.240;2023-05-21T10:15:00;22.90;99.90
21559;DHT22;10940;48.890;8.240;2023-05-21T10:17:28;23.00;99.90
21559;DHT22;10940;48.890;8.240;2023-05-21T10:19:58;23.00;99.90
21559;DHT22;10940;48.890;8.240;2023-05-21T10:22:24;23.20;99.90
21559;DHT22;10940;48.890;8.240;2023-05-21T10:24:53;23.30;99.90
21559;DHT22;10940;48.890;8.240;2023-05-21T10:27:19;23.50;99.90
21559;DHT22;10940;48.890;8.240;2023-05-21T10:29:47;23.70;99.90
21559;DHT22;10940;48.890;8.240;2023-05-21T10:32:14;23.70;99.90
21559;DHT22;10940;48.890;8.240;2023-05-21T10:34:44;23.70;99.90
21559;DHT22;10940;48.890;8.240;2023-05-21T10:37:12;23.70;99.90
21559;DHT22;10940;48.890;8.240;2023-05-21T10:39:38;23.70;99.90
21559;DHT22;10940;48.890;8.240;2023-05-21T10:44:55;23.80;99.90
21559;DHT22;10940;48.890;8.240;2023-05-21T10:48:03;23.90;99.90
21559;DHT22;10940;48.890;8.240;2023-05-21T11:02:05;23.80;99.90
21559;DHT22;10940;48.890;8.240;2023-05-21T11:04:32;23.80;99.90
21559;DHT22;10940;48.890;8.240;2023-05-21T11:06:59;23.70;99.90
21559;DHT22;10940;48.890;8.240;2023-05-21T11:09:25;23.70;99.90
21559;DHT22;10940;48.890;8.240;2023-05-21T11:11:55;23.70;99.90
21559;DHT22;10940;48.890;8.240;2023-05-21T11:14:38;23.80;99.90
21559;DHT22;10940;48.890;8.240;2023-05-21T11:17:34;23.90;99.90
21559;DHT22;10940;48.890;8.240;2023-05-21T11:20:03;24.00;99.90
21559;DHT22;10940;48.890;8.240;2023-05-21T11:22:34;24.20;99.90
21559;DHT22;10940;48.890;8.240;2023-05-21T11:25:01;24.20;99.90
21559;DHT22;10940;48.890;8.240;2023-05-21T11:27:34;24.40;99.90
21559;DHT22;10940;48.890;8.240;2023-05-21T11:30:05;24.70;99.90
21559;DHT22;10940;48.890;8.240;2023-05-21T11:32:36;25.00;99.90
21559;DHT22;10940;48.890;8.240;2023-05-21T11:35:02;25.40;99.90
21559;DHT22;10940;48.890;8.240;2023-05-21T11:37:28;25.70;99.90
21559;DHT22;10940;48.890;8.240;2023-05-21T11:39:56;25.90;99.90
21559;DHT22;10940;48.890;8.240;2023-05-21T11:42:33;26.00;99.90
21559;DHT22;10940;48.890;8.240;2023-05-21T11:45:00;26.10;99.90
21559;DHT22;10940;48.890;8.240;2023-05-21T11:47:27;26.10;99.90
21559;DHT22;10940;48.890;8.240;2023-05-21T11:49:54;26.10;99.90
21559;DHT22;10940;48.890;8.240;2023-05-21T11:52:20;25.90;99.90
21559;DHT22;10940;48.890;8.240;2023-05-21T11:54:47;25.80;99.90
21559;DHT22;10940;48.890;8.240;2023-05-21T11:57:15;25.70;99.90
21559;DHT22;10940;48.890;8.240;2023-05-21T11:59:43;25.70;99.90
21559;DHT22;10940;48.890;8.240;2023-05-21T12:02:13;25.80;99.90
21559;DHT22;10940;48.890;8.240;2023-05-21T12:04:40;25.90;99.90
21559;DHT22;10940;48.890;8.240;2023-05-21T12:07:07;25.70;99.90
21559;DHT22;10940;48.890;8.240;2023-05-21T12:09:40;25.60;99.90
21559;DHT22;10940;48.890;8.240;2023-05-21T12:12:15;25.50;99.90
21559;DHT22;10940;48.890;8.240;2023-05-21T12:14:45;25.50;99.90
21559;DHT22;10940;48.890;8.240;2023-05-21T12:17:14;25.50;99.90
21559;DHT22;10940;48.890;8.240;2023-05-21T12:19:41;25.70;99.90
21559;DHT22;10940;48.890;8.240;2023-05-21T12:22:08;25.90;99.90
21559;DHT22;10940;48.890;8.240;2023-05-21T12:24:35;26.20;99.90
21559;DHT22;10940;48.890;8.240;2023-05-21T12:27:03;26.30;99.90
21559;DHT22;10940;48.890;8.240;2023-05-21T12:29:38;26.50;99.90
21559;DHT22;10940;48.890;8.240;2023-05-21T12:32:08;26.50;99.90
21559;DHT22;10940;48.890;8.240;2023-05-21T12:34:48;26.30;99.90
21559;DHT22;10940;48.890;8.240;2023-05-21T12:37:16;26.10;99.90
21559;DHT22;10940;48.890;8.240;2023-05-21T12:39:43;26.10;99.90
21559;DHT22;10940;48.890;8.240;2023-05-21T12:42:09;26.20;99.90
21559;DHT22;10940;48.890;8.240;2023-05-21T12:44:37;26.00;99.90
21559;DHT22;10940;48.890;8.240;2023-05-21T12:47:02;25.80;99.90
21559;DHT22;10940;48.890;8.240;2023-05-21T12:49:52;25.70;99.90
21559;DHT22;10940;48.890;8.240;2023-05-21T12:52:19;25.60;99.90
21559;DHT22;10940;48.890;8.240;2023-05-21T12:54:49;25.50;99.90
21559;DHT22;10940;48.890;8.240;2023-05-21T12:57:20;25.70;99.90
21559;DHT22;10940;48.890;8.240;2023-05-21T12:59:58;25.90;99.90
21559;DHT22;10940;48.890;8.240;2023-05-21T13:02:28;26.00;99.90
21559;DHT22;10940;48.890;8.240;2023-05-21T13:05:06;26.00;99.90
21559;DHT22;10940;48.890;8.240;2023-05-21T13:07:33;26.10;99.90
21559;DHT22;10940;48.890;8.240;2023-05-21T13:09:59;26.10;99.90
21559;DHT22;10940;48.890;8.240;2023-05-21T13:12:27;26.30;99.90
21559;DHT22;10940;48.890;8.240;2023-05-21T13:14:55;26.40;99.90
21559;DHT22;10940;48.890;8.240;2023-05-21T13:17:22;26.50;99.90
21559;DHT22;10940;48.890;8.240;2023-05-21T13:20:13;26.60;99.90
21559;DHT22;10940;48.890;8.240;2023-05-21T13:22:41;26.60;99.90
21559;DHT22;10940;48.890;8.240;2023-05-21T13:25:08;26.50;99.90
21559;DHT22;10940;48.890;8.240;2023-05-21T13:27:34;26.30;99.90
21559;DHT22;10940;48.890;8.240;2023-05-21T13:30:00;26.10;99.90
21559;DHT22;10940;48.890;8.240;2023-05-21T13:32:26;26.10;99.90
21559;DHT22;10940;48.890;8.240;2023-05-21T13:34:52;26.10;99.90
21559;DHT22;10940;48.890;8.240;2023-05-21T13:37:17;26.00;99.90
21559;DHT22;10940;48.890;8.240;2023-05-21T13:39:45;25.80;99.90
21559;DHT22;10940;48.890;8.240;2023-05-21T13:42:10;25.60;99.90
21559;DHT22;10940;48.890;8.240;2023-05-21T13:44:36;25.30;99.90
21559;DHT22;10940;48.890;8.240;2023-05-21T13:47:03;25.20;99.90
21559;DHT22;10940;48.890;8.240;2023-05-21T13:49:29;25.20;99.90
21559;DHT22;10940;48.890;8.240;2023-05-21T13:51:54;25.20;99.90
21559;DHT22;10940;48.890;8.240;2023-05-21T13:54:20;25.10;99.90
21559;DHT22;10940;48.890;8.240;2023-05-21T13:56:46;25.00;99.90
21559;DHT22;10940;48.890;8.240;2023-05-21T13:59:11;25.10;99.90
21559;DHT22;10940;48.890;8.240;2023-05-21T14:01:37;25.10;99.90
21559;DHT22;10940;48.890;8.240;2023-05-21T14:04:02;25.20;99.90
21559;DHT22;10940;48.890;8.240;2023-05-21T14:06:33;25.20;99.90
21559;DHT22;10940;48.890;8.240;2023-05-21T14:08:59;25.20;99.90
21559;DHT22;10940;48.890;8.240;2023-05-21T14:11:26;25.20;99.90
21559;DHT22;10940;48.890;8.240;2023-05-21T14:13:52;25.20;99.90
21559;DHT22;10940;48.890;8.240;2023-05-21T14:16:18;25.10;99.90
21559;DHT22;10940;48.890;8.240;2023-05-21T14:18:44;25.10;99.90
21559;DHT22;10940;48.890;8.240;2023-05-21T14:21:10;25.10;99.90
21559;DHT22;10940;48.890;8.240;2023-05-21T14:23:35;25.00;99.90
21559;DHT22;10940;48.890;8.240;2023-05-21T14:26:01;25.10;99.90
21559;DHT22;10940;48.890;8.240;2023-05-21T14:28:26;25.10;99.90
21559;DHT22;10940;48.890;8.240;2023-05-21T14:30:52;25.10;99.90
21559;DHT22;10940;48.890;8.240;2023-05-21T14:33:18;25.20;99.90
21559;DHT22;10940;48.890;8.240;2023-05-21T14:35:43;25.20;99.90
21559;DHT22;10940;48.890;8.240;2023-05-21T14:38:09;25.20;99.90
21559;DHT22;10940;48.890;8.240;2023-05-21T14:40:35;25.20;99.90
21559;DHT22;10940;48.890;8.240;2023-05-21T14:43:01;25.10;99.90
21559;DHT22;10940;48.890;8.240;2023-05-21T14:45:27;25.10;99.90
21559;DHT22;10940;48.890;8.240;2023-05-21T14:47:53;25.20;99.90
21559;DHT22;10940;48.890;8.240;2023-05-21T14:50:19;25.40;99.90
21559;DHT22;10940;48.890;8.240;2023-05-21T14:52:44;25.40;99.90
21559;DHT22;10940;48.890;8.240;2023-05-21T14:55:10;25.40;99.90
21559;DHT22;10940;48.890;8.240;2023-05-21T14:57:37;25.40;99.90
21559;DHT22;10940;48.890;8.240;2023-05-21T15:00:04;25.20;99.90
21559;DHT22;10940;48.890;8.240;2023-05-21T15:02:30;25.20;99.90
21559;DHT22;10940;48.890;8.240;2023-05-21T15:04:55;25.10;99.90
21559;DHT22;10940;48.890;8.240;2023-05-21T15:07:21;25.00;99.90
21559;DHT22;10940;48.890;8.240;2023-05-21T15:09:46;24.90;99.90
21559;DHT22;10940;48.890;8.240;2023-05-21T15:12:12;24.90;99.90
21559;DHT22;10940;48.890;8.240;2023-05-21T15:14:38;24.90;99.90
21559;DHT22;10940;48.890;8.240;2023-05-21T15:17:04;24.90;99.90
21559;DHT22;10940;48.890;8.240;2023-05-21T15:19:29;24.90;99.90
21559;DHT22;10940;48.890;8.240;2023-05-21T15:21:55;24.90;99.90
21559;DHT22;10940;48.890;8.240;2023-05-21T15:24:20;24.90;99.90
21559;DHT22;10940;48.890;8.240;2023-05-21T15:26:46;24.90;99.90
21559;DHT22;10940;48.890;8.240;2023-05-21T15:29:13;25.00;99.90
21559;DHT22;10940;48.890;8.240;2023-05-21T15:31:39;25.00;99.90
21559;DHT22;10940;48.890;8.240;2023-05-21T15:34:04;25.00;99.90
21559;DHT22;10940;48.890;8.240;2023-05-21T15:36:30;25.10;99.90
21559;DHT22;10940;48.890;8.240;2023-05-21T15:38:56;25.10;99.90
21559;DHT22;10940;48.890;8.240;2023-05-21T15:41:21;25.20;99.90
21559;DHT22;10940;48.890;8.240;2023-05-21T15:43:47;25.20;99.90
21559;DHT22;10940;48.890;8.240;2023-05-21T15:46:13;25.30;99.90
21559;DHT22;10940;48.890;8.240;2023-05-21T15:48:38;25.30;99.90
21559;DHT22;10940;48.890;8.240;2023-05-21T15:51:04;25.30;99.90